sim
Sign-in with your pilot id or email,
or register
Callsign
Passwort

Schedule Details

Flight Number: OEO6133
Departure: Dar-es-Salaam Julius Nyerere International Airport (HTDA) at 03:55
Arrival: Munich Airport (EDDM) at 13:15

Weather Information
Getting current METAR information for HTDA 260800Z 02006KT 9999 BKN030 29/20 Q1015 NOSIG
Getting current METAR information for EDDM 260820Z 27015KT 9999 SCT019 BKN028 08/05 Q1000 TEMPO 26015G25KT

Schedule Frequency

Route Map